sensor_id;sensor_type;location;lat;lon;timestamp;P1;durP1;ratioP1;P2;durP2;ratioP2
54813;SDS011;40714;51.378;-2.348;2022-07-04T00:00:42;3.20;;;0.98;;
54813;SDS011;40714;51.378;-2.348;2022-07-04T00:03:08;1.67;;;1.00;;
54813;SDS011;40714;51.378;-2.348;2022-07-04T00:05:34;1.80;;;0.82;;
54813;SDS011;40714;51.378;-2.348;2022-07-04T00:08:00;3.15;;;0.90;;
54813;SDS011;40714;51.378;-2.348;2022-07-04T00:10:26;2.28;;;0.98;;
54813;SDS011;40714;51.378;-2.348;2022-07-04T00:12:52;2.50;;;0.90;;
54813;SDS011;40714;51.378;-2.348;2022-07-04T00:15:18;2.67;;;0.98;;
54813;SDS011;40714;51.378;-2.348;2022-07-04T00:17:44;1.90;;;0.93;;
54813;SDS011;40714;51.378;-2.348;2022-07-04T00:20:10;1.20;;;0.90;;
54813;SDS011;40714;51.378;-2.348;2022-07-04T00:22:37;1.15;;;0.85;;
54813;SDS011;40714;51.378;-2.348;2022-07-04T00:25:04;2.65;;;1.17;;
54813;SDS011;40714;51.378;-2.348;2022-07-04T00:27:30;2.45;;;1.00;;
54813;SDS011;40714;51.378;-2.348;2022-07-04T00:29:56;2.25;;;0.80;;
54813;SDS011;40714;51.378;-2.348;2022-07-04T00:32:22;3.30;;;0.93;;
54813;SDS011;40714;51.378;-2.348;2022-07-04T00:34:48;3.00;;;0.80;;
54813;SDS011;40714;51.378;-2.348;2022-07-04T00:37:14;4.05;;;1.02;;
54813;SDS011;40714;51.378;-2.348;2022-07-04T00:39:40;3.58;;;1.00;;
54813;SDS011;40714;51.378;-2.348;2022-07-04T00:42:07;1.30;;;0.70;;
54813;SDS011;40714;51.378;-2.348;2022-07-04T00:44:33;4.55;;;1.23;;
54813;SDS011;40714;51.378;-2.348;2022-07-04T00:47:02;2.25;;;0.77;;
54813;SDS011;40714;51.378;-2.348;2022-07-04T00:49:28;1.20;;;0.90;;
54813;SDS011;40714;51.378;-2.348;2022-07-04T00:51:54;2.72;;;1.20;;
54813;SDS011;40714;51.378;-2.348;2022-07-04T00:54:21;2.28;;;1.35;;
54813;SDS011;40714;51.378;-2.348;2022-07-04T00:56:51;3.00;;;0.80;;
54813;SDS011;40714;51.378;-2.348;2022-07-04T00:59:17;3.50;;;1.10;;
54813;SDS011;40714;51.378;-2.348;2022-07-04T01:01:43;3.35;;;1.05;;
54813;SDS011;40714;51.378;-2.348;2022-07-04T01:04:09;3.67;;;1.00;;
54813;SDS011;40714;51.378;-2.348;2022-07-04T01:06:35;1.40;;;0.75;;
54813;SDS011;40714;51.378;-2.348;2022-07-04T01:09:02;2.40;;;1.00;;
54813;SDS011;40714;51.378;-2.348;2022-07-04T01:11:28;2.13;;;0.75;;
54813;SDS011;40714;51.378;-2.348;2022-07-04T01:13:54;9.75;;;1.10;;
54813;SDS011;40714;51.378;-2.348;2022-07-04T01:16:20;1.35;;;0.80;;
54813;SDS011;40714;51.378;-2.348;2022-07-04T01:18:46;1.20;;;0.95;;
54813;SDS011;40714;51.378;-2.348;2022-07-04T01:21:12;2.05;;;0.95;;
54813;SDS011;40714;51.378;-2.348;2022-07-04T01:23:39;0.98;;;0.80;;
54813;SDS011;40714;51.378;-2.348;2022-07-04T01:26:05;3.63;;;1.00;;
54813;SDS011;40714;51.378;-2.348;2022-07-04T01:28:31;2.55;;;1.10;;
54813;SDS011;40714;51.378;-2.348;2022-07-04T01:30:57;2.08;;;1.05;;
54813;SDS011;40714;51.378;-2.348;2022-07-04T01:33:23;2.85;;;1.30;;
54813;SDS011;40714;51.378;-2.348;2022-07-04T01:35:49;2.30;;;0.82;;
54813;SDS011;40714;51.378;-2.348;2022-07-04T01:38:15;1.67;;;0.85;;
54813;SDS011;40714;51.378;-2.348;2022-07-04T01:40:41;3.00;;;0.90;;
54813;SDS011;40714;51.378;-2.348;2022-07-04T01:43:08;1.77;;;1.00;;
54813;SDS011;40714;51.378;-2.348;2022-07-04T01:45:34;1.33;;;0.85;;
54813;SDS011;40714;51.378;-2.348;2022-07-04T01:48:03;1.95;;;1.15;;
54813;SDS011;40714;51.378;-2.348;2022-07-04T01:50:29;2.20;;;1.50;;
54813;SDS011;40714;51.378;-2.348;2022-07-04T01:52:55;1.73;;;0.93;;
54813;SDS011;40714;51.378;-2.348;2022-07-04T01:55:21;1.58;;;0.82;;
54813;SDS011;40714;51.378;-2.348;2022-07-04T01:57:47;0.70;;;0.70;;
54813;SDS011;40714;51.378;-2.348;2022-07-04T02:00:15;1.05;;;0.80;;
54813;SDS011;40714;51.378;-2.348;2022-07-04T02:02:59;1.83;;;1.00;;
54813;SDS011;40714;51.378;-2.348;2022-07-04T02:05:25;2.47;;;1.20;;
54813;SDS011;40714;51.378;-2.348;2022-07-04T02:07:51;2.13;;;1.00;;
54813;SDS011;40714;51.378;-2.348;2022-07-04T02:10:17;1.88;;;1.30;;
54813;SDS011;40714;51.378;-2.348;2022-07-04T02:12:43;2.40;;;1.05;;
54813;SDS011;40714;51.378;-2.348;2022-07-04T02:15:29;2.38;;;1.30;;
54813;SDS011;40714;51.378;-2.348;2022-07-04T02:17:56;2.50;;;1.05;;
54813;SDS011;40714;51.378;-2.348;2022-07-04T02:20:22;2.60;;;0.90;;
54813;SDS011;40714;51.378;-2.348;2022-07-04T02:22:48;1.50;;;1.00;;
54813;SDS011;40714;51.378;-2.348;2022-07-04T02:25:14;4.57;;;1.05;;
54813;SDS011;40714;51.378;-2.348;2022-07-04T02:27:40;2.40;;;1.00;;
54813;SDS011;40714;51.378;-2.348;2022-07-04T02:30:06;2.72;;;0.85;;
54813;SDS011;40714;51.378;-2.348;2022-07-04T02:32:33;2.97;;;0.80;;
54813;SDS011;40714;51.378;-2.348;2022-07-04T02:34:59;3.35;;;1.08;;
54813;SDS011;40714;51.378;-2.348;2022-07-04T02:37:25;1.90;;;1.17;;
54813;SDS011;40714;51.378;-2.348;2022-07-04T02:39:51;1.50;;;1.02;;
54813;SDS011;40714;51.378;-2.348;2022-07-04T02:42:17;1.80;;;0.98;;
54813;SDS011;40714;51.378;-2.348;2022-07-04T02:44:43;3.08;;;0.70;;
54813;SDS011;40714;51.378;-2.348;2022-07-04T02:47:09;2.10;;;1.10;;
54813;SDS011;40714;51.378;-2.348;2022-07-04T02:49:35;3.17;;;0.88;;
54813;SDS011;40714;51.378;-2.348;2022-07-04T02:52:01;3.35;;;1.10;;
54813;SDS011;40714;51.378;-2.348;2022-07-04T02:54:28;2.10;;;0.90;;
54813;SDS011;40714;51.378;-2.348;2022-07-04T02:56:54;2.20;;;0.93;;
54813;SDS011;40714;51.378;-2.348;2022-07-04T02:59:19;2.42;;;0.93;;
54813;SDS011;40714;51.378;-2.348;2022-07-04T03:01:45;2.17;;;1.10;;
54813;SDS011;40714;51.378;-2.348;2022-07-04T03:04:11;1.25;;;1.00;;
54813;SDS011;40714;51.378;-2.348;2022-07-04T03:06:37;2.05;;;1.27;;
54813;SDS011;40714;51.378;-2.348;2022-07-04T03:09:05;3.33;;;0.90;;
54813;SDS011;40714;51.378;-2.348;2022-07-04T03:11:31;1.55;;;0.82;;
54813;SDS011;40714;51.378;-2.348;2022-07-04T03:13:57;2.58;;;0.88;;
54813;SDS011;40714;51.378;-2.348;2022-07-04T03:16:23;3.60;;;0.90;;
54813;SDS011;40714;51.378;-2.348;2022-07-04T03:18:49;1.85;;;0.90;;
54813;SDS011;40714;51.378;-2.348;2022-07-04T03:21:15;2.22;;;0.90;;
54813;SDS011;40714;51.378;-2.348;2022-07-04T03:23:41;2.03;;;0.90;;
54813;SDS011;40714;51.378;-2.348;2022-07-04T03:26:07;1.10;;;0.95;;
54813;SDS011;40714;51.378;-2.348;2022-07-04T03:28:34;3.72;;;0.95;;
54813;SDS011;40714;51.378;-2.348;2022-07-04T03:31:00;3.63;;;0.80;;
54813;SDS011;40714;51.378;-2.348;2022-07-04T03:33:26;2.63;;;1.15;;
54813;SDS011;40714;51.378;-2.348;2022-07-04T03:35:52;1.92;;;0.73;;
54813;SDS011;40714;51.378;-2.348;2022-07-04T03:38:18;1.00;;;0.70;;
54813;SDS011;40714;51.378;-2.348;2022-07-04T03:40:44;2.83;;;0.80;;
54813;SDS011;40714;51.378;-2.348;2022-07-04T03:43:10;0.90;;;0.80;;
54813;SDS011;40714;51.378;-2.348;2022-07-04T03:45:36;1.05;;;0.88;;
54813;SDS011;40714;51.378;-2.348;2022-07-04T03:48:02;2.95;;;1.13;;
54813;SDS011;40714;51.378;-2.348;2022-07-04T03:50:29;1.58;;;1.20;;
54813;SDS011;40714;51.378;-2.348;2022-07-04T03:52:55;1.35;;;0.93;;
54813;SDS011;40714;51.378;-2.348;2022-07-04T03:55:21;2.60;;;1.08;;
54813;SDS011;40714;51.378;-2.348;2022-07-04T03:57:47;1.63;;;1.30;;
54813;SDS011;40714;51.378;-2.348;2022-07-04T04:00:13;3.28;;;1.30;;
54813;SDS011;40714;51.378;-2.348;2022-07-04T04:02:39;2.53;;;1.38;;
54813;SDS011;40714;51.378;-2.348;2022-07-04T04:05:06;1.63;;;1.42;;
54813;SDS011;40714;51.378;-2.348;2022-07-04T04:07:51;2.05;;;1.30;;
54813;SDS011;40714;51.378;-2.348;2022-07-04T04:10:17;2.75;;;1.27;;
54813;SDS011;40714;51.378;-2.348;2022-07-04T04:12:43;2.33;;;1.77;;
54813;SDS011;40714;51.378;-2.348;2022-07-04T04:15:09;1.80;;;1.58;;
54813;SDS011;40714;51.378;-2.348;2022-07-04T04:17:35;3.17;;;1.60;;
54813;SDS011;40714;51.378;-2.348;2022-07-04T04:20:01;5.80;;;1.70;;
54813;SDS011;40714;51.378;-2.348;2022-07-04T04:22:28;2.75;;;1.65;;
54813;SDS011;40714;51.378;-2.348;2022-07-04T04:24:54;1.90;;;1.70;;
54813;SDS011;40714;51.378;-2.348;2022-07-04T04:27:20;3.17;;;1.90;;
54813;SDS011;40714;51.378;-2.348;2022-07-04T04:29:46;3.45;;;1.88;;
54813;SDS011;40714;51.378;-2.348;2022-07-04T04:32:12;2.65;;;2.08;;
54813;SDS011;40714;51.378;-2.348;2022-07-04T04:34:38;4.35;;;2.15;;
54813;SDS011;40714;51.378;-2.348;2022-07-04T04:37:04;3.35;;;1.83;;
54813;SDS011;40714;51.378;-2.348;2022-07-04T04:39:30;5.55;;;2.60;;
54813;SDS011;40714;51.378;-2.348;2022-07-04T04:41:56;4.50;;;2.22;;
54813;SDS011;40714;51.378;-2.348;2022-07-04T04:44:22;3.92;;;2.22;;
54813;SDS011;40714;51.378;-2.348;2022-07-04T04:46:48;3.75;;;2.40;;
54813;SDS011;40714;51.378;-2.348;2022-07-04T04:49:14;4.05;;;2.28;;
54813;SDS011;40714;51.378;-2.348;2022-07-04T04:51:42;2.92;;;1.75;;
54813;SDS011;40714;51.378;-2.348;2022-07-04T04:54:08;3.75;;;2.22;;
54813;SDS011;40714;51.378;-2.348;2022-07-04T04:56:34;4.50;;;1.98;;
54813;SDS011;40714;51.378;-2.348;2022-07-04T04:59:00;5.70;;;2.08;;
54813;SDS011;40714;51.378;-2.348;2022-07-04T05:01:26;2.88;;;1.77;;
54813;SDS011;40714;51.378;-2.348;2022-07-04T05:03:52;6.78;;;2.08;;
54813;SDS011;40714;51.378;-2.348;2022-07-04T05:06:18;4.70;;;2.17;;
54813;SDS011;40714;51.378;-2.348;2022-07-04T05:08:44;3.38;;;2.42;;
54813;SDS011;40714;51.378;-2.348;2022-07-04T05:11:10;2.38;;;2.00;;
54813;SDS011;40714;51.378;-2.348;2022-07-04T05:13:36;3.35;;;2.00;;
54813;SDS011;40714;51.378;-2.348;2022-07-04T05:16:02;2.90;;;1.77;;
54813;SDS011;40714;51.378;-2.348;2022-07-04T05:18:29;3.63;;;2.20;;
54813;SDS011;40714;51.378;-2.348;2022-07-04T05:20:55;3.17;;;1.90;;
54813;SDS011;40714;51.378;-2.348;2022-07-04T05:23:21;6.07;;;2.30;;
54813;SDS011;40714;51.378;-2.348;2022-07-04T05:25:47;4.07;;;2.25;;
54813;SDS011;40714;51.378;-2.348;2022-07-04T05:28:13;3.75;;;1.80;;
54813;SDS011;40714;51.378;-2.348;2022-07-04T05:30:39;4.70;;;1.85;;
54813;SDS011;40714;51.378;-2.348;2022-07-04T05:33:05;1.77;;;1.65;;
54813;SDS011;40714;51.378;-2.348;2022-07-04T05:35:31;4.97;;;2.08;;
54813;SDS011;40714;51.378;-2.348;2022-07-04T05:37:57;4.80;;;1.48;;
54813;SDS011;40714;51.378;-2.348;2022-07-04T05:40:23;2.50;;;1.77;;
54813;SDS011;40714;51.378;-2.348;2022-07-04T05:42:49;4.38;;;1.73;;
54813;SDS011;40714;51.378;-2.348;2022-07-04T05:45:16;2.85;;;1.90;;
54813;SDS011;40714;51.378;-2.348;2022-07-04T05:47:42;2.55;;;1.77;;
54813;SDS011;40714;51.378;-2.348;2022-07-04T05:50:09;4.70;;;1.92;;
54813;SDS011;40714;51.378;-2.348;2022-07-04T05:52:35;2.65;;;1.80;;
54813;SDS011;40714;51.378;-2.348;2022-07-04T05:55:02;3.78;;;1.75;;
54813;SDS011;40714;51.378;-2.348;2022-07-04T05:57:28;2.90;;;1.63;;
54813;SDS011;40714;51.378;-2.348;2022-07-04T05:59:54;3.90;;;2.15;;
54813;SDS011;40714;51.378;-2.348;2022-07-04T06:02:20;3.40;;;1.50;;
54813;SDS011;40714;51.378;-2.348;2022-07-04T06:04:46;4.85;;;1.90;;
54813;SDS011;40714;51.378;-2.348;2022-07-04T06:07:12;4.30;;;1.85;;
54813;SDS011;40714;51.378;-2.348;2022-07-04T06:09:38;6.78;;;2.22;;
54813;SDS011;40714;51.378;-2.348;2022-07-04T06:12:04;3.95;;;1.95;;
54813;SDS011;40714;51.378;-2.348;2022-07-04T06:14:30;3.30;;;1.95;;
54813;SDS011;40714;51.378;-2.348;2022-07-04T06:16:56;4.35;;;1.70;;
54813;SDS011;40714;51.378;-2.348;2022-07-04T06:19:22;4.35;;;2.08;;
54813;SDS011;40714;51.378;-2.348;2022-07-04T06:21:48;6.22;;;2.67;;
54813;SDS011;40714;51.378;-2.348;2022-07-04T06:24:14;5.75;;;1.90;;
54813;SDS011;40714;51.378;-2.348;2022-07-04T06:26:40;4.18;;;1.98;;
54813;SDS011;40714;51.378;-2.348;2022-07-04T06:29:06;3.33;;;2.10;;
54813;SDS011;40714;51.378;-2.348;2022-07-04T06:31:33;6.28;;;1.70;;
54813;SDS011;40714;51.378;-2.348;2022-07-04T06:33:59;3.72;;;1.70;;
54813;SDS011;40714;51.378;-2.348;2022-07-04T06:36:45;4.30;;;1.70;;
54813;SDS011;40714;51.378;-2.348;2022-07-04T06:39:11;2.83;;;1.50;;
54813;SDS011;40714;51.378;-2.348;2022-07-04T06:41:37;2.88;;;1.30;;
54813;SDS011;40714;51.378;-2.348;2022-07-04T06:44:04;2.83;;;1.50;;
54813;SDS011;40714;51.378;-2.348;2022-07-04T06:46:30;4.07;;;1.30;;
54813;SDS011;40714;51.378;-2.348;2022-07-04T06:48:56;2.90;;;1.40;;
54813;SDS011;40714;51.378;-2.348;2022-07-04T06:51:22;2.15;;;1.10;;
54813;SDS011;40714;51.378;-2.348;2022-07-04T06:53:48;1.75;;;0.95;;
54813;SDS011;40714;51.378;-2.348;2022-07-04T06:56:15;4.10;;;1.27;;
54813;SDS011;40714;51.378;-2.348;2022-07-04T06:58:42;2.05;;;1.10;;
54813;SDS011;40714;51.378;-2.348;2022-07-04T07:01:08;1.73;;;0.90;;
54813;SDS011;40714;51.378;-2.348;2022-07-04T07:03:34;1.23;;;0.68;;
54813;SDS011;40714;51.378;-2.348;2022-07-04T07:06:00;2.08;;;0.90;;
54813;SDS011;40714;51.378;-2.348;2022-07-04T07:08:27;2.50;;;0.90;;
54813;SDS011;40714;51.378;-2.348;2022-07-04T07:10:54;1.88;;;0.70;;
54813;SDS011;40714;51.378;-2.348;2022-07-04T07:13:20;1.05;;;0.80;;
54813;SDS011;40714;51.378;-2.348;2022-07-04T07:15:46;2.10;;;0.70;;
54813;SDS011;40714;51.378;-2.348;2022-07-04T07:18:12;1.98;;;0.75;;
54813;SDS011;40714;51.378;-2.348;2022-07-04T07:20:38;3.97;;;1.15;;
54813;SDS011;40714;51.378;-2.348;2022-07-04T07:23:04;2.35;;;0.80;;
54813;SDS011;40714;51.378;-2.348;2022-07-04T07:25:30;2.80;;;1.25;;
54813;SDS011;40714;51.378;-2.348;2022-07-04T07:27:56;2.67;;;0.75;;
54813;SDS011;40714;51.378;-2.348;2022-07-04T07:30:22;1.15;;;0.70;;
54813;SDS011;40714;51.378;-2.348;2022-07-04T07:32:48;3.00;;;0.80;;
54813;SDS011;40714;51.378;-2.348;2022-07-04T07:35:14;1.35;;;0.73;;
54813;SDS011;40714;51.378;-2.348;2022-07-04T07:37:41;2.47;;;0.80;;
54813;SDS011;40714;51.378;-2.348;2022-07-04T07:40:07;5.38;;;1.00;;
54813;SDS011;40714;51.378;-2.348;2022-07-04T07:42:33;1.95;;;0.60;;
54813;SDS011;40714;51.378;-2.348;2022-07-04T07:44:59;5.25;;;1.25;;
54813;SDS011;40714;51.378;-2.348;2022-07-04T07:47:25;2.65;;;0.57;;
54813;SDS011;40714;51.378;-2.348;2022-07-04T07:49:51;1.88;;;0.70;;
54813;SDS011;40714;51.378;-2.348;2022-07-04T07:52:17;2.20;;;0.75;;
54813;SDS011;40714;51.378;-2.348;2022-07-04T07:54:43;2.13;;;0.93;;
54813;SDS011;40714;51.378;-2.348;2022-07-04T07:57:09;2.05;;;0.60;;
54813;SDS011;40714;51.378;-2.348;2022-07-04T07:59:35;3.22;;;0.60;;
54813;SDS011;40714;51.378;-2.348;2022-07-04T08:02:01;2.60;;;0.70;;
54813;SDS011;40714;51.378;-2.348;2022-07-04T08:04:27;1.27;;;0.85;;
54813;SDS011;40714;51.378;-2.348;2022-07-04T08:07:03;3.88;;;0.93;;
54813;SDS011;40714;51.378;-2.348;2022-07-04T08:09:30;2.38;;;0.70;;
54813;SDS011;40714;51.378;-2.348;2022-07-04T08:11:56;2.38;;;0.60;;
54813;SDS011;40714;51.378;-2.348;2022-07-04T08:14:22;2.53;;;0.60;;
54813;SDS011;40714;51.378;-2.348;2022-07-04T08:16:48;0.65;;;0.50;;
54813;SDS011;40714;51.378;-2.348;2022-07-04T08:19:14;3.55;;;0.98;;
54813;SDS011;40714;51.378;-2.348;2022-07-04T08:21:40;4.35;;;0.90;;
54813;SDS011;40714;51.378;-2.348;2022-07-04T08:24:06;2.17;;;0.55;;
54813;SDS011;40714;51.378;-2.348;2022-07-04T08:26:32;1.83;;;0.68;;
54813;SDS011;40714;51.378;-2.348;2022-07-04T08:28:58;0.63;;;0.60;;
54813;SDS011;40714;51.378;-2.348;2022-07-04T08:31:25;3.45;;;0.80;;
54813;SDS011;40714;51.378;-2.348;2022-07-04T08:33:52;1.38;;;0.60;;
54813;SDS011;40714;51.378;-2.348;2022-07-04T08:36:18;2.22;;;0.55;;
54813;SDS011;40714;51.378;-2.348;2022-07-04T08:38:44;1.67;;;0.70;;
54813;SDS011;40714;51.378;-2.348;2022-07-04T08:41:10;2.05;;;0.50;;
54813;SDS011;40714;51.378;-2.348;2022-07-04T08:43:37;3.83;;;0.80;;
54813;SDS011;40714;51.378;-2.348;2022-07-04T08:46:04;3.78;;;0.90;;
54813;SDS011;40714;51.378;-2.348;2022-07-04T08:48:30;1.73;;;0.63;;
54813;SDS011;40714;51.378;-2.348;2022-07-04T08:51:00;1.42;;;0.90;;
54813;SDS011;40714;51.378;-2.348;2022-07-04T08:53:28;2.42;;;0.55;;
54813;SDS011;40714;51.378;-2.348;2022-07-04T08:55:56;1.73;;;0.70;;
54813;SDS011;40714;51.378;-2.348;2022-07-04T08:58:44;1.98;;;0.90;;
54813;SDS011;40714;51.378;-2.348;2022-07-04T09:01:11;0.88;;;0.50;;
54813;SDS011;40714;51.378;-2.348;2022-07-04T09:03:40;2.25;;;0.60;;
54813;SDS011;40714;51.378;-2.348;2022-07-04T09:06:07;2.78;;;0.68;;
54813;SDS011;40714;51.378;-2.348;2022-07-04T09:08:34;1.77;;;0.47;;
54813;SDS011;40714;51.378;-2.348;2022-07-04T09:11:00;1.98;;;0.75;;
54813;SDS011;40714;51.378;-2.348;2022-07-04T09:13:27;2.47;;;0.95;;
54813;SDS011;40714;51.378;-2.348;2022-07-04T09:15:53;2.10;;;0.80;;
54813;SDS011;40714;51.378;-2.348;2022-07-04T09:18:20;4.65;;;0.77;;
54813;SDS011;40714;51.378;-2.348;2022-07-04T09:20:46;2.20;;;0.80;;
54813;SDS011;40714;51.378;-2.348;2022-07-04T09:23:22;2.35;;;0.80;;
54813;SDS011;40714;51.378;-2.348;2022-07-04T09:25:49;2.30;;;0.80;;
54813;SDS011;40714;51.378;-2.348;2022-07-04T09:28:31;2.78;;;0.90;;
54813;SDS011;40714;51.378;-2.348;2022-07-04T09:30:57;5.00;;;1.17;;
54813;SDS011;40714;51.378;-2.348;2022-07-04T09:33:38;2.95;;;0.82;;
54813;SDS011;40714;51.378;-2.348;2022-07-04T09:36:13;1.63;;;0.70;;
54813;SDS011;40714;51.378;-2.348;2022-07-04T09:38:39;2.30;;;0.63;;
54813;SDS011;40714;51.378;-2.348;2022-07-04T09:41:05;4.25;;;1.23;;
54813;SDS011;40714;51.378;-2.348;2022-07-04T09:43:59;1.70;;;0.55;;
54813;SDS011;40714;51.378;-2.348;2022-07-04T09:46:25;1.42;;;0.57;;
54813;SDS011;40714;51.378;-2.348;2022-07-04T09:48:51;2.10;;;0.70;;
54813;SDS011;40714;51.378;-2.348;2022-07-04T09:56:58;1.45;;;0.65;;
54813;SDS011;40714;51.378;-2.348;2022-07-04T09:59:25;1.50;;;0.80;;
54813;SDS011;40714;51.378;-2.348;2022-07-04T10:01:52;2.88;;;0.80;;
54813;SDS011;40714;51.378;-2.348;2022-07-04T10:04:46;5.75;;;1.70;;
54813;SDS011;40714;51.378;-2.348;2022-07-04T10:07:29;5.15;;;1.73;;
54813;SDS011;40714;51.378;-2.348;2022-07-04T10:09:55;2.42;;;0.60;;
54813;SDS011;40714;51.378;-2.348;2022-07-04T10:12:26;2.72;;;0.77;;
54813;SDS011;40714;51.378;-2.348;2022-07-04T10:14:53;1.88;;;0.60;;
54813;SDS011;40714;51.378;-2.348;2022-07-04T10:17:19;1.83;;;0.82;;
54813;SDS011;40714;51.378;-2.348;2022-07-04T10:19:45;1.15;;;0.65;;
54813;SDS011;40714;51.378;-2.348;2022-07-04T10:22:12;2.10;;;0.65;;
54813;SDS011;40714;51.378;-2.348;2022-07-04T10:24:39;10.85;;;2.25;;
54813;SDS011;40714;51.378;-2.348;2022-07-04T10:27:04;1.80;;;0.93;;
54813;SDS011;40714;51.378;-2.348;2022-07-04T10:29:31;0.68;;;0.57;;
54813;SDS011;40714;51.378;-2.348;2022-07-04T10:31:57;4.80;;;0.82;;
54813;SDS011;40714;51.378;-2.348;2022-07-04T10:34:23;1.30;;;0.95;;
54813;SDS011;40714;51.378;-2.348;2022-07-04T10:36:50;2.40;;;0.70;;
54813;SDS011;40714;51.378;-2.348;2022-07-04T10:39:21;5.03;;;1.10;;
54813;SDS011;40714;51.378;-2.348;2022-07-04T10:41:57;2.60;;;1.25;;
54813;SDS011;40714;51.378;-2.348;2022-07-04T10:44:23;1.15;;;1.02;;
54813;SDS011;40714;51.378;-2.348;2022-07-04T10:46:51;2.33;;;1.00;;
54813;SDS011;40714;51.378;-2.348;2022-07-04T10:49:23;1.90;;;0.82;;
54813;SDS011;40714;51.378;-2.348;2022-07-04T10:51:56;1.95;;;1.25;;
54813;SDS011;40714;51.378;-2.348;2022-07-04T10:54:30;1.88;;;1.02;;
54813;SDS011;40714;51.378;-2.348;2022-07-04T10:56:57;4.57;;;1.05;;
54813;SDS011;40714;51.378;-2.348;2022-07-04T10:59:32;1.85;;;1.20;;
54813;SDS011;40714;51.378;-2.348;2022-07-04T11:07:19;2.58;;;1.63;;
54813;SDS011;40714;51.378;-2.348;2022-07-04T11:09:46;1.55;;;1.15;;
54813;SDS011;40714;51.378;-2.348;2022-07-04T11:12:12;2.80;;;1.20;;
54813;SDS011;40714;51.378;-2.348;2022-07-04T11:17:06;2.25;;;1.25;;
54813;SDS011;40714;51.378;-2.348;2022-07-04T11:19:33;2.22;;;0.90;;
54813;SDS011;40714;51.378;-2.348;2022-07-04T11:21:59;2.17;;;1.05;;
54813;SDS011;40714;51.378;-2.348;2022-07-04T11:24:26;1.70;;;1.20;;
54813;SDS011;40714;51.378;-2.348;2022-07-04T11:26:52;1.17;;;1.08;;
54813;SDS011;40714;51.378;-2.348;2022-07-04T11:29:18;1.45;;;1.00;;
54813;SDS011;40714;51.378;-2.348;2022-07-04T11:31:47;1.95;;;1.02;;
54813;SDS011;40714;51.378;-2.348;2022-07-04T11:34:14;2.47;;;0.93;;
54813;SDS011;40714;51.378;-2.348;2022-07-04T11:36:41;1.15;;;0.80;;
54813;SDS011;40714;51.378;-2.348;2022-07-04T11:39:08;1.58;;;0.98;;
54813;SDS011;40714;51.378;-2.348;2022-07-04T11:41:36;6.53;;;2.28;;
54813;SDS011;40714;51.378;-2.348;2022-07-04T11:44:22;2.05;;;0.95;;
54813;SDS011;40714;51.378;-2.348;2022-07-04T11:47:11;5.82;;;0.90;;
54813;SDS011;40714;51.378;-2.348;2022-07-04T11:52:09;0.75;;;0.70;;
54813;SDS011;40714;51.378;-2.348;2022-07-04T11:54:35;1.08;;;0.82;;
54813;SDS011;40714;51.378;-2.348;2022-07-04T11:59:59;3.10;;;0.95;;
54813;SDS011;40714;51.378;-2.348;2022-07-04T12:02:26;0.73;;;0.70;;
54813;SDS011;40714;51.378;-2.348;2022-07-04T12:04:52;2.05;;;0.90;;
54813;SDS011;40714;51.378;-2.348;2022-07-04T12:07:19;1.58;;;0.75;;
54813;SDS011;40714;51.378;-2.348;2022-07-04T12:09:46;0.50;;;0.50;;
54813;SDS011;40714;51.378;-2.348;2022-07-04T12:12:12;1.75;;;0.90;;
54813;SDS011;40714;51.378;-2.348;2022-07-04T12:14:40;0.88;;;0.88;;
54813;SDS011;40714;51.378;-2.348;2022-07-04T12:17:21;2.20;;;0.85;;
54813;SDS011;40714;51.378;-2.348;2022-07-04T12:19:54;1.65;;;0.80;;
54813;SDS011;40714;51.378;-2.348;2022-07-04T12:22:28;1.17;;;0.90;;
54813;SDS011;40714;51.378;-2.348;2022-07-04T12:24:55;0.88;;;0.88;;
54813;SDS011;40714;51.378;-2.348;2022-07-04T12:27:21;0.82;;;0.80;;
54813;SDS011;40714;51.378;-2.348;2022-07-04T12:29:47;0.60;;;0.60;;
54813;SDS011;40714;51.378;-2.348;2022-07-04T12:32:14;1.20;;;1.10;;
54813;SDS011;40714;51.378;-2.348;2022-07-04T12:34:40;2.17;;;1.13;;
54813;SDS011;40714;51.378;-2.348;2022-07-04T12:37:08;1.33;;;0.90;;
54813;SDS011;40714;51.378;-2.348;2022-07-04T12:39:35;1.13;;;0.80;;
54813;SDS011;40714;51.378;-2.348;2022-07-04T12:42:12;1.02;;;1.00;;
54813;SDS011;40714;51.378;-2.348;2022-07-04T12:44:39;1.00;;;0.90;;
54813;SDS011;40714;51.378;-2.348;2022-07-04T12:47:06;1.75;;;0.90;;
54813;SDS011;40714;51.378;-2.348;2022-07-04T12:49:33;0.90;;;0.70;;
54813;SDS011;40714;51.378;-2.348;2022-07-04T12:52:06;1.05;;;0.93;;
54813;SDS011;40714;51.378;-2.348;2022-07-04T12:54:33;1.33;;;0.85;;
54813;SDS011;40714;51.378;-2.348;2022-07-04T12:57:07;1.20;;;1.10;;
54813;SDS011;40714;51.378;-2.348;2022-07-04T12:59:34;1.55;;;1.10;;
54813;SDS011;40714;51.378;-2.348;2022-07-04T13:02:00;0.93;;;0.90;;
54813;SDS011;40714;51.378;-2.348;2022-07-04T13:04:26;1.90;;;1.10;;
54813;SDS011;40714;51.378;-2.348;2022-07-04T13:06:52;1.83;;;1.20;;
54813;SDS011;40714;51.378;-2.348;2022-07-04T13:09:19;1.33;;;1.20;;
54813;SDS011;40714;51.378;-2.348;2022-07-04T13:11:45;2.78;;;1.13;;
54813;SDS011;40714;51.378;-2.348;2022-07-04T13:14:29;2.10;;;1.30;;
54813;SDS011;40714;51.378;-2.348;2022-07-04T13:16:56;1.33;;;1.10;;
54813;SDS011;40714;51.378;-2.348;2022-07-04T13:19:22;1.48;;;1.30;;
54813;SDS011;40714;51.378;-2.348;2022-07-04T13:21:48;1.65;;;1.50;;
54813;SDS011;40714;51.378;-2.348;2022-07-04T13:24:14;3.65;;;1.52;;
54813;SDS011;40714;51.378;-2.348;2022-07-04T13:26:40;2.03;;;1.40;;
54813;SDS011;40714;51.378;-2.348;2022-07-04T13:29:07;2.05;;;1.90;;
54813;SDS011;40714;51.378;-2.348;2022-07-04T13:31:33;2.83;;;1.75;;
54813;SDS011;40714;51.378;-2.348;2022-07-04T13:33:59;3.30;;;1.50;;
54813;SDS011;40714;51.378;-2.348;2022-07-04T13:36:26;2.58;;;1.50;;
54813;SDS011;40714;51.378;-2.348;2022-07-04T13:38:52;1.20;;;1.05;;
54813;SDS011;40714;51.378;-2.348;2022-07-04T13:41:18;2.20;;;1.38;;
54813;SDS011;40714;51.378;-2.348;2022-07-04T13:43:44;2.55;;;1.20;;
54813;SDS011;40714;51.378;-2.348;2022-07-04T13:46:10;1.10;;;0.98;;
54813;SDS011;40714;51.378;-2.348;2022-07-04T13:48:36;1.83;;;0.90;;
54813;SDS011;40714;51.378;-2.348;2022-07-04T13:51:02;1.77;;;1.00;;
54813;SDS011;40714;51.378;-2.348;2022-07-04T13:53:28;1.10;;;1.00;;
54813;SDS011;40714;51.378;-2.348;2022-07-04T13:55:56;1.10;;;1.00;;
54813;SDS011;40714;51.378;-2.348;2022-07-04T13:58:22;3.80;;;1.25;;
54813;SDS011;40714;51.378;-2.348;2022-07-04T14:00:48;1.60;;;1.00;;
54813;SDS011;40714;51.378;-2.348;2022-07-04T14:03:14;1.10;;;1.00;;
54813;SDS011;40714;51.378;-2.348;2022-07-04T14:05:41;2.75;;;1.38;;
54813;SDS011;40714;51.378;-2.348;2022-07-04T14:08:07;1.17;;;1.08;;
54813;SDS011;40714;51.378;-2.348;2022-07-04T14:10:33;2.33;;;1.30;;
54813;SDS011;40714;51.378;-2.348;2022-07-04T14:12:59;2.15;;;1.17;;
54813;SDS011;40714;51.378;-2.348;2022-07-04T14:15:25;1.55;;;0.98;;
54813;SDS011;40714;51.378;-2.348;2022-07-04T14:17:51;1.08;;;0.98;;
54813;SDS011;40714;51.378;-2.348;2022-07-04T14:20:17;2.22;;;1.00;;
54813;SDS011;40714;51.378;-2.348;2022-07-04T14:22:43;1.17;;;1.00;;
54813;SDS011;40714;51.378;-2.348;2022-07-04T14:25:09;1.70;;;1.17;;
54813;SDS011;40714;51.378;-2.348;2022-07-04T14:27:35;1.23;;;1.10;;
54813;SDS011;40714;51.378;-2.348;2022-07-04T14:30:02;2.00;;;1.33;;
54813;SDS011;40714;51.378;-2.348;2022-07-04T14:32:30;1.75;;;1.20;;
54813;SDS011;40714;51.378;-2.348;2022-07-04T14:34:56;2.05;;;1.10;;
54813;SDS011;40714;51.378;-2.348;2022-07-04T14:37:22;1.25;;;1.00;;
54813;SDS011;40714;51.378;-2.348;2022-07-04T14:39:48;1.10;;;1.00;;
54813;SDS011;40714;51.378;-2.348;2022-07-04T14:42:14;1.40;;;1.02;;
54813;SDS011;40714;51.378;-2.348;2022-07-04T14:44:41;2.05;;;1.38;;
54813;SDS011;40714;51.378;-2.348;2022-07-04T14:47:07;2.08;;;1.27;;
54813;SDS011;40714;51.378;-2.348;2022-07-04T14:49:34;2.33;;;1.45;;
54813;SDS011;40714;51.378;-2.348;2022-07-04T14:52:02;3.90;;;1.40;;